Time;durP1;ratioP1;P1;durP2;ratioP2;P2;SDS_P1;SDS_P2;PMS_P1;PMS_P2;Temp;Humidity;BMP_temperature;BMP_pressure;BME280_temperature;BME280_humidity;BME280_pressure;Samples;Min_cycle;Max_cycle;Signal;HPM_P1;HPM_P2
2022/09/03 00:00:51;;;;;;;3.67;1.33;;;;;;;18.36;48.30;98683.72;5280311;28;20073;-80
2022/09/03 00:03:46;;;;;;;2.45;1.30;;;;;;;18.33;48.09;98673.41;5279217;28;20051;-80
2022/09/03 00:06:53;;;;;;;1.52;1.10;;;;;;;18.26;48.24;98671.50;5280174;28;20043;-80
2022/09/03 00:09:52;;;;;;;1.30;1.20;;;;;;;18.59;47.21;98678.84;5280335;28;20058;-80
2022/09/03 00:12:45;;;;;;;6.38;1.30;;;;;;;18.60;47.46;98691.22;5283285;28;20409;-80
2022/09/03 00:15:39;;;;;;;3.25;1.10;;;;;;;18.35;47.75;98655.25;5307420;28;20108;-80
2022/09/03 00:18:32;;;;;;;;;;;;;;;18.29;48.96;98673.78;5289387;28;20099;-80
2022/09/03 00:21:44;;;;;;;2.05;1.10;;;;;;;18.28;48.93;98669.47;5283995;28;19926;-81
2022/09/03 00:24:38;;;;;;;2.65;1.40;;;;;;;18.16;49.32;98652.28;5277753;28;20490;-80
2022/09/03 00:27:32;;;;;;;3.13;1.30;;;;;;;18.31;48.56;98650.28;5292173;28;20504;-80
2022/09/03 00:30:23;;;;;;;3.42;1.55;;;;;;;18.31;48.70;98644.09;5273453;28;20039;-80
2022/09/03 00:33:29;;;;;;;4.93;1.35;;;;;;;18.25;48.64;98667.19;5293164;28;20108;-79
2022/09/03 00:36:30;;;;;;;1.77;1.20;;;;;;;18.14;49.18;98670.41;5279668;28;20074;-81
2022/09/03 00:39:23;;;;;;;1.50;1.20;;;;;;;18.04;49.69;98659.25;5295401;28;20065;-80
2022/09/03 00:42:47;;;;;;;2.72;1.38;;;;;;;18.04;52.05;98684.22;5278900;28;20071;-80
2022/09/03 00:46:08;;;;;;;4.70;1.52;;;;;;;17.76;51.81;98673.56;5278256;28;20541;-80
2022/09/03 00:49:27;;;;;;;10.88;1.85;;;;;;;17.68;52.86;98673.69;5287601;28;20073;-79
2022/09/03 00:52:55;;;;;;;4.80;1.70;;;;;;;17.91;51.94;98694.03;5290342;28;20054;-80
2022/09/03 00:56:14;;;;;;;1.95;1.50;;;;;;;17.91;51.84;98694.03;5295390;28;20413;-80
2022/09/03 00:59:30;;;;;;;2.90;1.40;;;;;;;17.96;51.56;98679.03;5293908;28;20050;-80
2022/09/03 01:02:35;;;;;;;3.58;1.30;;;;;;;18.03;51.78;98676.38;5277818;28;20533;-79
2022/09/03 01:05:37;;;;;;;2.65;1.15;;;;;;;18.14;52.41;98677.66;5293205;28;20071;-79
2022/09/03 01:08:43;;;;;;;2.25;1.40;;;;;;;17.90;52.80;98663.72;5293832;28;20074;-80
2022/09/03 01:11:58;;;;;;;2.97;1.40;;;;;;;17.83;52.29;98663.69;5272625;28;20051;-80
2022/09/03 01:15:03;;;;;;;5.22;1.50;;;;;;;17.93;52.84;98682.09;5292172;28;20126;-80
2022/09/03 01:18:05;;;;;;;2.22;1.23;;;;;;;17.98;52.16;98676.13;5277472;28;20055;-79
2022/09/03 01:21:33;;;;;;;1.83;1.17;;;;;;;18.01;52.07;98681.09;5275790;28;20070;-79
2022/09/03 01:24:58;;;;;;;1.42;1.30;;;;;;;17.98;51.57;98681.50;5294662;28;20059;-81
2022/09/03 01:28:22;;;;;;;5.95;1.60;;;;;;;17.94;51.58;98688.28;5267512;28;20052;-79
2022/09/03 01:31:25;;;;;;;1.83;1.20;;;;;;;17.89;51.83;98671.97;5292766;28;20052;-80
2022/09/03 01:34:34;;;;;;;4.28;1.38;;;;;;;17.92;52.47;98671.59;5274549;28;20051;-80
2022/09/03 01:37:56;;;;;;;2.22;1.25;;;;;;;17.97;52.93;98675.31;5279024;28;20051;-78
2022/09/03 01:44:52;;;;;;;4.65;1.40;;;;;;;18.10;52.72;98674.53;5278128;28;20051;-79
2022/09/03 01:48:12;;;;;;;2.85;1.48;;;;;;;18.15;52.10;98677.47;5257581;28;20122;-80
2022/09/03 01:51:19;;;;;;;2.75;1.52;;;;;;;18.18;52.19;98684.25;5284105;28;20075;-79
2022/09/03 01:54:25;;;;;;;1.98;1.25;;;;;;;17.98;52.14;98673.44;5257325;28;20048;-80
2022/09/03 01:57:44;;;;;;;3.45;1.83;;;;;;;17.94;52.92;98670.34;5289128;28;20097;-78
2022/09/03 02:00:38;;;;;;;2.03;1.50;;;;;;;17.99;53.52;98696.59;5261411;28;20051;-79
2022/09/03 02:03:36;;;;;;;3.78;1.42;;;;;;;17.95;53.61;98693.47;5257046;28;20048;-80
2022/09/03 02:06:33;;;;;;;2.67;1.20;;;;;;;17.90;53.77;98677.13;5266527;28;20077;-79
2022/09/03 02:09:23;;;;;;;1.50;1.20;;;;;;;18.03;53.04;98687.91;5263740;28;20140;-80
2022/09/03 02:12:22;;;;;;;1.70;1.20;;;;;;;18.11;51.26;98678.88;5278193;28;20052;-80
2022/09/03 02:15:17;;;;;;;2.53;1.67;;;;;;;18.15;52.35;98674.78;5291291;27;20047;-80
2022/09/03 02:18:22;;;;;;;2.13;1.30;;;;;;;18.14;51.85;98678.47;5279127;28;20058;-80
2022/09/03 02:21:19;;;;;;;2.67;1.60;;;;;;;18.09;52.52;98675.56;5278190;28;20071;-80
2022/09/03 02:24:09;;;;;;;3.72;1.60;;;;;;;17.91;51.69;98654.63;5279945;28;20051;-81
2022/09/03 02:26:59;;;;;;;1.83;1.40;;;;;;;17.99;52.27;98662.53;5281800;28;20184;-81
2022/09/03 02:29:50;;;;;;;2.45;1.42;;;;;;;18.15;52.19;98685.50;5293123;28;20050;-79
2022/09/03 02:32:40;;;;;;;4.53;1.58;;;;;;;18.09;52.88;98689.00;5260622;28;20056;-81
2022/09/03 02:35:31;;;;;;;4.03;1.70;;;;;;;17.88;52.36;98646.16;5261258;28;20043;-81
2022/09/03 02:38:27;;;;;;;3.28;1.65;;;;;;;17.80;53.37;98648.00;5275444;28;20054;-81
2022/09/03 02:41:18;;;;;;;3.90;1.60;;;;;;;18.17;53.43;98702.22;5287970;28;20062;-81
2022/09/03 02:44:13;;;;;;;2.05;1.27;;;;;;;18.07;53.04;98681.13;5276090;28;20066;-81
2022/09/03 02:47:06;;;;;;;2.05;1.40;;;;;;;18.20;51.83;98683.03;5287306;28;20075;-81
2022/09/03 02:49:57;;;;;;;2.30;1.30;;;;;;;18.22;51.38;98689.03;5269206;28;20055;-81
2022/09/03 02:52:47;;;;;;;4.10;1.20;;;;;;;18.04;51.53;98659.25;5285146;28;20062;-81
2022/09/03 02:55:37;;;;;;;1.30;1.20;;;;;;;17.77;53.61;98626.94;5274316;28;20058;-81
2022/09/03 02:58:30;;;;;;;2.05;1.42;;;;;;;17.78;52.14;98625.94;5272996;28;20055;-80
2022/09/03 03:01:21;;;;;;;2.75;1.30;;;;;;;18.05;52.77;98666.28;5285252;28;20119;-80
2022/09/03 03:04:13;;;;;;;3.25;1.63;;;;;;;18.10;52.50;98663.81;5278030;27;20047;-81
2022/09/03 03:07:05;;;;;;;3.28;1.52;;;;;;;17.88;53.20;98647.00;5283524;28;20512;-81
2022/09/03 03:09:56;;;;;;;3.58;1.50;;;;;;;18.02;53.38;98674.72;5277630;28;20051;-81
2022/09/03 03:12:46;;;;;;;7.28;1.50;;;;;;;17.74;52.71;98626.47;5277246;28;20051;-80
2022/09/03 03:15:36;;;;;;;3.58;1.40;;;;;;;17.80;53.93;98623.84;5275788;28;20535;-81
2022/09/03 03:18:27;;;;;;;2.25;1.50;;;;;;;18.14;53.64;98686.53;5285803;28;20077;-81
2022/09/03 03:21:18;;;;;;;1.80;1.33;;;;;;;17.74;54.35;98632.66;5290948;28;20107;-81
2022/09/03 03:24:09;;;;;;;3.35;1.42;;;;;;;18.16;52.99;98691.72;5281818;27;20062;-81
2022/09/03 03:26:59;;;;;;;5.43;1.40;;;;;;;18.02;51.60;98639.84;5295447;27;20059;-81
2022/09/03 03:29:49;;;;;;;1.30;1.20;;;;;;;18.08;51.62;98655.97;5293677;28;20055;-81
2022/09/03 03:32:39;;;;;;;1.48;1.13;;;;;;;18.13;51.32;98660.72;5293303;28;20428;-81
2022/09/03 03:35:30;;;;;;;3.88;1.17;;;;;;;18.35;51.13;98688.28;5274068;28;20051;-81
2022/09/03 03:38:20;;;;;;;1.63;1.35;;;;;;;18.26;50.30;98663.47;5292805;28;20105;-81
2022/09/03 03:41:14;;;;;;;2.53;1.45;;;;;;;18.36;50.75;98668.44;5292167;28;20521;-80
2022/09/03 03:44:07;;;;;;;3.45;1.35;;;;;;;18.33;51.09;98692.19;5272266;28;20048;-80
2022/09/03 03:46:57;;;;;;;2.15;1.38;;;;;;;17.66;52.12;98607.88;5258106;28;20056;-81
2022/09/03 03:49:47;;;;;;;3.90;1.40;;;;;;;18.02;52.18;98655.94;5262547;28;20040;-80
2022/09/03 03:52:38;;;;;;;3.58;1.48;;;;;;;18.20;51.80;98658.88;5262778;28;20051;-80
2022/09/03 03:55:28;;;;;;;3.20;1.23;;;;;;;18.39;51.49;98680.66;5274073;28;20051;-80
2022/09/03 03:58:24;;;;;;;3.28;1.45;;;;;;;18.15;52.33;98653.31;5279103;28;20071;-80
2022/09/03 04:01:17;;;;;;;1.50;1.23;;;;;;;18.10;51.42;98606.66;5273813;28;20105;-81
2022/09/03 04:04:08;;;;;;;2.15;1.50;;;;;;;18.36;51.41;98681.03;5278699;28;20082;-80
2022/09/03 04:06:58;;;;;;;4.15;1.65;;;;;;;18.31;51.53;98677.13;5288597;28;20054;-80
2022/09/03 04:09:48;;;;;;;2.83;1.33;;;;;;;18.38;51.26;98665.59;5274426;28;20040;-80
2022/09/03 04:12:39;;;;;;;2.80;1.48;;;;;;;18.53;51.27;98695.75;5256752;28;20138;-80
2022/09/03 04:15:30;;;;;;;2.20;1.38;;;;;;;18.42;50.86;98656.09;5260361;28;20052;-81
2022/09/03 04:18:20;;;;;;;2.55;1.65;;;;;;;18.31;51.15;98655.66;5288050;28;20058;-81
2022/09/03 04:21:13;;;;;;;1.85;1.40;;;;;;;18.16;51.55;98636.19;5277881;28;20070;-81
2022/09/03 04:24:05;;;;;;;1.85;1.45;;;;;;;18.41;51.36;98659.78;5281634;28;20058;-80
2022/09/03 04:26:55;;;;;;;2.10;1.35;;;;;;;18.57;50.90;98666.63;5289531;28;20092;-80
2022/09/03 04:29:46;;;;;;;2.63;1.50;;;;;;;18.26;51.26;98642.00;5295353;28;20050;-80
2022/09/03 04:32:52;;;;;;;5.38;1.73;;;;;;;18.46;51.07;98676.94;5276844;28;20323;-80
2022/09/03 04:35:42;;;;;;;3.28;2.13;;;;;;;18.31;50.64;98642.22;5294462;28;20069;-80
2022/09/03 04:38:34;;;;;;;5.43;1.88;;;;;;;18.64;50.31;98684.44;5283460;28;20055;-80
2022/09/03 04:41:29;;;;;;;2.28;1.33;;;;;;;18.71;50.41;98711.31;5293355;28;20148;-81
2022/09/03 04:44:20;;;;;;;4.07;1.60;;;;;;;18.65;49.24;98650.34;5297074;27;20104;-80
2022/09/03 04:47:10;;;;;;;1.95;1.63;;;;;;;18.44;50.34;98637.91;5277237;28;20115;-80
2022/09/03 04:50:00;;;;;;;4.05;1.50;;;;;;;18.54;49.94;98644.56;5281390;28;20093;-79
2022/09/03 04:52:51;;;;;;;2.45;1.60;;;;;;;18.61;50.02;98671.41;5279660;28;20058;-80
2022/09/03 04:55:41;;;;;;;5.20;1.60;;;;;;;18.72;50.33;98667.34;5294343;28;20456;-80
2022/09/03 04:58:31;;;;;;;7.72;1.60;;;;;;;18.70;50.05;98672.03;5276950;28;20058;-81
2022/09/03 05:01:25;;;;;;;2.50;1.50;;;;;;;18.69;50.41;98667.72;5286813;28;20103;-81
2022/09/03 05:04:16;;;;;;;3.45;1.45;;;;;;;18.65;50.38;98667.28;5275176;28;20070;-81
2022/09/03 05:07:06;;;;;;;2.08;1.50;;;;;;;18.63;50.68;98672.03;5278472;28;20063;-80
2022/09/03 05:09:57;;;;;;;3.60;1.70;;;;;;;18.75;50.01;98674.97;5260605;28;20500;-80
2022/09/03 05:12:57;;;;;;;4.63;1.85;;;;;;;18.95;50.55;98721.50;5278464;28;20059;-81
2022/09/03 05:15:47;;;;;;;3.50;1.60;;;;;;;18.66;51.03;98674.31;5286959;28;20050;-81
2022/09/03 05:18:37;;;;;;;2.63;1.70;;;;;;;18.61;50.67;98671.41;5283245;28;20054;-81
2022/09/03 05:21:28;;;;;;;5.00;1.42;;;;;;;18.96;50.59;98715.09;5290409;28;20225;-81
2022/09/03 05:24:19;;;;;;;2.38;1.60;;;;;;;18.87;50.52;98702.06;5275793;28;20065;-80
2022/09/03 05:27:09;;;;;;;3.95;1.52;;;;;;;18.84;50.44;98686.34;5286432;28;20063;-79
2022/09/03 05:30:00;;;;;;;5.53;1.83;;;;;;;18.64;51.00;98670.16;5285525;28;20052;-79
2022/09/03 05:32:51;;;;;;;2.47;1.55;;;;;;;18.73;51.28;98677.84;5272134;28;20126;-81
2022/09/03 05:35:41;;;;;;;4.38;1.70;;;;;;;18.54;52.18;98649.06;5285742;28;20055;-80
2022/09/03 05:38:32;;;;;;;3.83;1.63;;;;;;;18.64;52.26;98664.78;5277829;28;20050;-80
2022/09/03 05:41:22;;;;;;;2.15;1.85;;;;;;;19.07;52.50;98727.09;5274278;28;20497;-80
2022/09/03 05:44:13;;;;;;;5.95;1.88;;;;;;;18.59;52.14;98660.03;5290470;28;20062;-81
2022/09/03 05:47:03;;;;;;;1.42;1.27;;;;;;;18.81;52.51;98698.34;5278448;28;20062;-80
2022/09/03 05:49:53;;;;;;;1.50;1.30;;;;;;;18.72;52.75;98678.06;5278206;28;20050;-81
2022/09/03 05:52:43;;;;;;;3.47;1.63;;;;;;;18.71;53.14;98681.78;5288283;27;20058;-80
2022/09/03 05:55:33;;;;;;;5.22;1.67;;;;;;;18.63;53.24;98661.28;5275376;28;20058;-81
2022/09/03 05:58:29;;;;;;;2.63;1.65;;;;;;;18.90;52.20;98710.53;5276276;28;20055;-81
2022/09/03 06:01:22;;;;;;;4.88;1.80;;;;;;;19.05;52.02;98715.72;5286624;28;20558;-81
2022/09/03 06:04:14;;;;;;;2.30;1.77;;;;;;;19.05;52.33;98704.97;5275244;28;20054;-80
2022/09/03 06:07:04;;;;;;;2.53;1.80;;;;;;;19.10;51.17;98698.97;5258248;28;20058;-81
2022/09/03 06:09:54;;;;;;;1.75;1.58;;;;;;;19.32;49.50;98678.09;5289430;28;20042;-81
2022/09/03 06:12:48;;;;;;;2.58;1.70;;;;;;;19.50;49.38;98702.47;5274553;28;20055;-81
2022/09/03 06:15:38;;;;;;;;;;;;;;;20.11;48.55;98734.50;5281643;27;20050;-80
2022/09/03 06:18:30;;;;;;;3.67;1.92;;;;;;;19.75;49.29;98710.78;5278835;28;19920;-79
2022/09/03 06:21:21;;;;;;;1.88;1.40;;;;;;;19.60;50.00;98697.53;5282577;27;20050;-81
2022/09/03 06:24:22;;;;;;;2.00;1.60;;;;;;;19.93;49.38;98742.38;5289416;27;20128;-80
2022/09/03 06:27:20;;;;;;;3.15;1.40;;;;;;;19.93;50.18;98723.56;5276439;28;20047;-80
2022/09/03 06:30:11;;;;;;;3.35;1.70;;;;;;;19.86;50.39;98706.59;5273565;28;20055;-80
2022/09/03 06:33:01;;;;;;;2.15;1.67;;;;;;;20.46;47.21;98704.53;5273933;27;20063;-81
2022/09/03 06:35:57;;;;;;;2.40;1.60;;;;;;;20.09;48.60;98711.50;5276794;28;20047;-80
2022/09/03 06:38:51;;;;;;;5.20;1.70;;;;;;;20.32;48.80;98735.25;5273618;28;20054;-81
2022/09/03 06:41:41;;;;;;;2.30;1.43;;;;;;;20.21;49.47;98738.59;5260862;28;20099;-81
2022/09/03 06:44:31;;;;;;;3.00;1.60;;;;;;;20.13;48.11;98708.19;5272745;28;20052;-80
2022/09/03 06:47:22;;;;;;;5.70;1.73;;;;;;;19.91;49.59;98691.50;5277830;28;20516;-79
2022/09/03 06:50:13;;;;;;;3.00;1.50;;;;;;;20.24;49.53;98733.63;5288491;28;20522;-80
2022/09/03 06:53:03;;;;;;;3.90;1.73;;;;;;;20.15;48.90;98697.19;5269670;28;20047;-80
2022/09/03 06:55:55;;;;;;;2.47;1.52;;;;;;;20.40;49.38;98743.91;5271644;28;20054;-79
2022/09/03 06:58:47;;;;;;;2.63;1.67;;;;;;;20.65;48.04;98729.75;5284627;28;20044;-78
2022/09/03 07:01:39;;;;;;;3.15;2.17;;;;;;;20.61;48.50;98747.38;5279586;28;20050;-78
2022/09/03 07:04:33;;;;;;;3.22;2.20;;;;;;;20.61;48.45;98747.38;5301512;28;20055;-79
2022/09/03 07:07:24;;;;;;;4.22;1.65;;;;;;;20.60;48.53;98745.75;5272503;28;20059;-76
2022/09/03 07:10:19;;;;;;;3.42;1.67;;;;;;;20.64;48.86;98736.19;5273134;28;20040;-78
2022/09/03 07:13:10;;;;;;;2.45;1.90;;;;;;;20.83;48.69;98755.97;5287303;28;20058;-78
2022/09/03 07:16:10;;;;;;;3.90;2.38;;;;;;;20.85;47.96;98752.00;5281832;28;20576;-78
2022/09/03 07:19:02;;;;;;;5.93;2.03;;;;;;;20.86;47.55;98720.50;5270501;28;20066;-78
2022/09/03 07:21:52;;;;;;;4.55;1.88;;;;;;;21.04;47.72;98738.63;5305622;28;20135;-78
2022/09/03 07:24:45;;;;;;;6.50;1.80;;;;;;;21.10;47.90;98725.13;5284569;28;20474;-79
2022/09/03 07:27:36;;;;;;;2.72;1.73;;;;;;;21.30;48.43;98746.53;5286845;28;20088;-78
2022/09/03 07:30:26;;;;;;;2.75;1.98;;;;;;;21.62;47.54;98759.16;5265297;28;20182;-78
2022/09/03 07:33:17;;;;;;;3.00;1.80;;;;;;;22.14;46.26;98757.84;5272711;28;20055;-78
2022/09/03 07:36:15;;;;;;;5.90;1.95;;;;;;;22.05;46.48;98764.56;5268860;28;20058;-78
2022/09/03 07:39:06;;;;;;;4.40;2.03;;;;;;;21.67;46.95;98753.94;5280842;28;20132;-78
2022/09/03 07:41:58;;;;;;;5.90;2.15;;;;;;;21.81;46.35;98742.78;5274910;28;20126;-78
2022/09/03 07:44:48;;;;;;;3.03;2.08;;;;;;;21.82;46.40;98759.84;5280444;28;20559;-78
2022/09/03 07:47:48;;;;;;;5.40;1.85;;;;;;;21.70;47.06;98761.59;5288296;28;20078;-79
2022/09/03 07:50:39;;;;;;;3.10;2.05;;;;;;;21.96;46.15;98747.84;5272159;28;20647;-79
2022/09/03 07:53:29;;;;;;;2.70;1.92;;;;;;;21.96;46.61;98742.47;5274973;28;20449;-78
2022/09/03 07:56:20;;;;;;;6.80;2.10;;;;;;;22.00;46.46;98724.75;5288802;27;20478;-78
2022/09/03 07:59:11;;;;;;;4.55;2.03;;;;;;;22.13;46.03;98734.59;5272977;27;20501;-79
2022/09/03 08:02:01;;;;;;;3.88;2.13;;;;;;;22.19;46.56;98747.22;5282234;28;20082;-78
2022/09/03 08:04:51;;;;;;;4.60;2.40;;;;;;;22.52;46.06;98763.03;5291702;27;20103;-79
2022/09/03 08:07:41;;;;;;;4.95;2.10;;;;;;;22.63;46.63;98772.25;5281361;27;20064;-78
2022/09/03 08:10:37;;;;;;;4.45;1.85;;;;;;;22.69;45.80;98775.94;5283114;28;20113;-78
2022/09/03 08:13:27;;;;;;;4.00;2.20;;;;;;;22.70;45.62;98762.19;5274251;28;20558;-77
2022/09/03 08:16:17;;;;;;;5.43;2.22;;;;;;;23.43;43.80;98763.84;5291755;28;20528;-79
2022/09/03 08:19:08;;;;;;;2.63;1.77;;;;;;;23.50;45.33;98760.22;5273731;28;20053;-78
2022/09/03 08:21:59;;;;;;;4.53;2.22;;;;;;;23.54;44.90;98762.25;5267607;28;20463;-79
2022/09/03 08:24:49;;;;;;;7.95;2.55;;;;;;;23.38;44.80;98781.88;5286835;28;20048;-79
2022/09/03 08:27:40;;;;;;;4.05;2.05;;;;;;;23.28;44.86;98771.59;5264513;28;20705;-77
2022/09/03 08:30:30;;;;;;;4.07;2.10;;;;;;;23.23;44.90;98781.47;5264351;28;20078;-80
2022/09/03 08:33:36;;;;;;;4.47;2.17;;;;;;;23.01;46.63;98775.72;5281693;28;20043;-77
2022/09/03 08:36:29;;;;;;;2.63;2.15;;;;;;;23.45;45.87;98790.69;5287359;28;20592;-77
2022/09/03 08:39:19;;;;;;;7.78;2.13;;;;;;;23.50;45.43;98761.03;5281597;28;20466;-80
2022/09/03 08:42:33;;;;;;;3.92;2.15;;;;;;;23.81;45.47;98784.31;5248732;28;20490;-80
2022/09/03 08:45:25;;;;;;;11.10;2.53;;;;;;;23.65;45.79;98776.84;5281206;28;20673;-79
2022/09/03 08:48:22;;;;;;;3.15;2.28;;;;;;;23.55;45.64;98780.13;5287443;28;20136;-79
2022/09/03 08:51:18;;;;;;;4.43;2.17;;;;;;;23.27;46.28;98766.41;5290326;28;20052;-78
2022/09/03 08:54:11;;;;;;;3.20;2.22;;;;;;;22.85;46.35;98788.00;5262615;28;20120;-79
2022/09/03 08:57:02;;;;;;;3.67;2.92;;;;;;;22.47;48.06;98778.28;5290957;27;20139;-80
2022/09/03 08:59:57;;;;;;;6.75;2.80;;;;;;;22.57;49.81;98810.16;5279737;28;20130;-79
2022/09/03 09:03:29;;;;;;;7.53;3.03;;;;;;;22.45;49.03;98796.56;5273628;28;20052;-79
2022/09/03 09:06:29;;;;;;;5.25;2.88;;;;;;;22.90;49.44;98815.16;5291752;27;20144;-79
2022/09/03 09:09:47;;;;;;;4.20;2.63;;;;;;;22.69;48.07;98824.59;5287814;28;20519;-78
2022/09/03 09:12:57;;;;;;;6.57;3.00;;;;;;;22.67;48.08;98826.69;5271120;28;20040;-79
2022/09/03 09:16:07;;;;;;;3.33;2.78;;;;;;;22.81;47.98;98832.75;5288240;28;20059;-79
2022/09/03 09:19:33;;;;;;;3.58;2.63;;;;;;;23.53;46.62;98813.88;5279937;28;20073;-78
2022/09/03 09:22:45;;;;;;;8.10;2.80;;;;;;;23.74;46.16;98807.13;5281840;28;20055;-79
2022/09/03 09:25:47;;;;;;;4.97;2.90;;;;;;;23.76;45.92;98829.38;5257011;28;20051;-79
2022/09/03 09:28:37;;;;;;;4.72;2.78;;;;;;;23.45;45.95;98818.56;5280708;28;20104;-79
2022/09/03 09:31:29;;;;;;;7.40;2.80;;;;;;;23.94;45.10;98815.75;5284353;28;20414;-79
2022/09/03 09:34:20;;;;;;;5.63;2.72;;;;;;;24.49;45.08;98807.25;5271092;28;20093;-79
2022/09/03 09:37:13;;;;;;;5.85;2.70;;;;;;;24.99;43.07;98801.19;5267405;28;20409;-78
2022/09/03 09:40:04;;;;;;;2.70;2.10;;;;;;;25.19;43.67;98814.34;5258155;28;20081;-78
2022/09/03 09:43:05;;;;;;;2.50;2.30;;;;;;;25.49;42.05;98795.06;5278737;28;20062;-79
2022/09/03 09:46:07;;;;;;;5.60;2.65;;;;;;;25.31;42.82;98793.41;5271900;28;20048;-80
2022/09/03 09:48:57;;;;;;;4.57;2.92;;;;;;;25.12;43.74;98804.72;5283695;28;20048;-78
2022/09/03 09:51:48;;;;;;;3.65;2.70;;;;;;;24.85;42.51;98792.53;5269175;28;20039;-79
2022/09/03 09:54:40;;;;;;;4.57;2.78;;;;;;;25.31;42.71;98787.97;5290980;28;20054;-78
2022/09/03 09:57:30;;;;;;;6.00;2.65;;;;;;;25.22;41.97;98792.16;5284450;28;20051;-78
2022/09/03 10:00:21;;;;;;;5.45;2.75;;;;;;;26.47;42.46;98803.66;5284924;28;20050;-77
2022/09/03 10:03:12;;;;;;;5.25;2.92;;;;;;;26.96;39.37;98777.59;5275511;28;20173;-79
2022/09/03 10:09:18;;;;;;;4.28;2.25;;;;;;;27.36;39.53;98797.09;5281816;28;20058;-78
2022/09/03 10:12:25;;;;;;;4.43;2.67;;;;;;;26.13;41.16;98783.88;5282445;28;20046;-78
2022/09/03 10:15:30;;;;;;;5.55;2.42;;;;;;;27.06;40.22;98794.84;5278661;28;20672;-78
2022/09/03 10:18:44;;;;;;;5.55;2.20;;;;;;;26.68;41.11;98793.88;5284941;28;20057;-79
2022/09/03 10:21:48;;;;;;;4.18;2.53;;;;;;;26.54;39.88;98786.34;5284247;28;20109;-78
2022/09/03 10:24:56;;;;;;;3.90;2.30;;;;;;;26.75;39.50;98771.09;5287580;28;20054;-79
2022/09/03 10:27:47;;;;;;;4.07;2.78;;;;;;;27.10;39.14;98781.56;5291741;28;20543;-78
2022/09/03 10:31:07;;;;;;;4.00;2.22;;;;;;;27.02;39.58;98785.56;5288006;28;20536;-78
2022/09/03 10:34:06;;;;;;;2.60;2.35;;;;;;;27.33;39.45;98784.00;5287004;28;20047;-79
2022/09/03 10:37:21;;;;;;;2.38;2.17;;;;;;;27.24;39.42;98790.16;5285874;28;20792;-79
2022/09/03 10:40:29;;;;;;;3.13;2.20;;;;;;;26.80;40.81;98787.50;5286271;28;20043;-79
2022/09/03 10:43:41;;;;;;;3.80;2.40;;;;;;;26.60;40.31;98788.88;5293305;28;20050;-78
2022/09/03 10:46:58;;;;;;;3.05;2.10;;;;;;;26.75;41.27;98777.34;5275005;28;20667;-78
2022/09/03 10:50:15;;;;;;;2.97;2.47;;;;;;;27.47;40.31;98770.75;5278327;28;20061;-80
2022/09/03 10:53:30;;;;;;;3.70;2.63;;;;;;;27.82;38.35;98772.97;5289063;28;20055;-80
2022/09/03 10:56:31;;;;;;;4.63;2.40;;;;;;;27.03;39.97;98762.72;5290067;28;20410;-80
2022/09/03 10:59:37;;;;;;;3.85;2.63;;;;;;;27.44;38.84;98771.28;5296009;28;20101;-79
2022/09/03 11:02:30;;;;;;;4.45;2.25;;;;;;;27.17;39.73;98761.25;5284503;28;20059;-79
2022/09/03 11:05:28;;;;;;;14.40;2.92;;;;;;;26.79;39.53;98764.06;5290080;28;20054;-79
2022/09/03 11:08:25;;;;;;;4.68;2.80;;;;;;;27.28;39.05;98753.16;5279665;28;20054;-79
2022/09/03 11:11:21;;;;;;;4.13;2.95;;;;;;;27.24;40.51;98750.13;5292275;28;20413;-78
2022/09/03 11:14:15;;;;;;;4.45;2.50;;;;;;;27.29;39.97;98752.09;5281658;28;20469;-79
2022/09/03 11:17:14;;;;;;;5.55;2.42;;;;;;;27.53;39.98;98741.69;5272857;28;20047;-79
2022/09/03 11:20:17;;;;;;;3.10;2.20;;;;;;;27.92;39.43;98750.44;5273180;28;20079;-79
2022/09/03 11:23:12;;;;;;;5.85;2.42;;;;;;;28.04;37.82;98731.97;5267651;28;20118;-79
2022/09/03 11:26:11;;;;;;;4.68;2.53;;;;;;;27.64;39.63;98718.88;5258907;28;20059;-78
2022/09/03 11:29:28;;;;;;;5.82;2.25;;;;;;;27.98;39.06;98734.91;5279096;28;20075;-79
2022/09/03 11:32:30;;;;;;;2.55;2.10;;;;;;;27.82;38.15;98723.13;5279160;28;20047;-78
2022/09/03 11:35:23;;;;;;;6.05;2.13;;;;;;;27.63;38.40;98731.69;5291980;28;20044;-79
2022/09/03 11:38:13;;;;;;;2.67;1.70;;;;;;;27.45;39.38;98728.53;5288142;28;20047;-77
2022/09/03 11:41:13;;;;;;;2.40;1.83;;;;;;;27.70;37.26;98714.28;5265542;28;20675;-79
2022/09/03 11:44:16;;;;;;;4.45;2.00;;;;;;;27.00;39.33;98707.97;5277014;28;20554;-78
2022/09/03 11:47:20;;;;;;;4.83;2.10;;;;;;;27.25;40.06;98724.59;5274706;28;20048;-81
2022/09/03 11:50:29;;;;;;;2.80;2.40;;;;;;;27.25;39.99;98715.56;5286813;28;20134;-79
2022/09/03 11:53:27;;;;;;;4.25;2.20;;;;;;;27.05;39.09;98719.75;5271999;28;20188;-79
2022/09/03 11:56:18;;;;;;;3.28;2.42;;;;;;;26.86;41.18;98729.34;5260499;28;20093;-79
2022/09/03 11:59:14;;;;;;;3.30;2.50;;;;;;;26.38;41.06;98728.22;5276143;28;20051;-78
2022/09/03 12:02:23;;;;;;;5.15;2.22;;;;;;;26.73;40.29;98727.03;5285376;28;20055;-78
2022/09/03 12:05:41;;;;;;;2.97;2.25;;;;;;;26.60;40.33;98733.69;5280540;28;20052;-80
2022/09/03 12:08:47;;;;;;;6.20;2.25;;;;;;;26.62;41.16;98739.66;5284990;28;20059;-78
2022/09/03 12:11:53;;;;;;;2.90;2.30;;;;;;;26.40;41.69;98745.91;5288662;28;20036;-78
2022/09/03 12:15:02;;;;;;;2.15;1.95;;;;;;;26.58;40.59;98752.94;5279725;28;20054;-78
2022/09/03 12:18:17;;;;;;;4.30;2.17;;;;;;;26.39;40.47;98732.56;5264287;28;20123;-79
2022/09/03 12:21:09;;;;;;;4.63;2.40;;;;;;;25.96;41.09;98734.19;5278929;28;20067;-79
2022/09/03 12:24:01;;;;;;;2.75;2.20;;;;;;;25.84;42.88;98738.91;5293538;28;20714;-79
2022/09/03 12:26:52;;;;;;;4.40;2.10;;;;;;;25.71;42.20;98723.75;5286866;28;20047;-80
2022/09/03 12:29:58;;;;;;;4.47;2.42;;;;;;;25.63;42.75;98756.72;5286552;28;20058;-79
2022/09/03 12:32:50;;;;;;;2.88;2.30;;;;;;;25.70;43.18;98774.53;5286971;28;20458;-80
2022/09/03 12:35:40;;;;;;;3.53;2.28;;;;;;;25.77;42.36;98779.78;5292073;28;20160;-79
2022/09/03 12:38:51;;;;;;;2.85;2.55;;;;;;;25.76;42.42;98772.69;5292442;28;20043;-79
2022/09/03 12:42:09;;;;;;;3.17;2.40;;;;;;;25.37;43.60;98753.63;5287959;28;20164;-79
2022/09/03 12:45:07;;;;;;;3.28;2.65;;;;;;;25.17;44.23;98762.22;5285279;28;20054;-79
2022/09/03 12:47:58;;;;;;;3.13;2.65;;;;;;;25.19;45.54;98781.78;5269874;28;20054;-79
2022/09/03 12:50:59;;;;;;;6.80;2.70;;;;;;;25.27;44.30;98788.72;5273494;28;20169;-79
2022/09/03 12:54:15;;;;;;;3.65;2.40;;;;;;;25.58;43.44;98776.50;5286412;27;20603;-79
2022/09/03 12:57:07;;;;;;;5.55;2.67;;;;;;;25.08;44.72;98764.47;5297253;27;20600;-79
2022/09/03 13:00:08;;;;;;;2.58;2.38;;;;;;;24.92;44.95;98770.69;5277406;28;20058;-79
2022/09/03 13:03:03;;;;;;;3.80;2.63;;;;;;;25.06;45.39;98779.34;5286898;28;20072;-79
2022/09/03 13:05:58;;;;;;;6.22;3.10;;;;;;;24.85;47.55;98784.38;5287303;28;20063;-79
2022/09/03 13:08:53;;;;;;;4.57;2.70;;;;;;;24.96;46.74;98790.81;5288348;28;20094;-79
2022/09/03 13:11:43;;;;;;;3.05;2.00;;;;;;;24.09;50.40;98807.13;5280513;28;20043;-79
2022/09/03 13:14:42;;;;;;;2.38;1.92;;;;;;;24.19;51.86;98807.38;5283449;28;20070;-79
2022/09/03 13:17:52;;;;;;;6.30;2.25;;;;;;;23.58;53.33;98779.66;5287282;28;20054;-80
2022/09/03 13:21:12;;;;;;;2.17;1.98;;;;;;;23.62;52.32;98802.50;5268933;28;20063;-80
2022/09/03 13:24:34;;;;;;;2.75;1.80;;;;;;;23.44;53.74;98791.72;5288218;28;20051;-78
2022/09/03 13:28:01;;;;;;;2.58;1.73;;;;;;;23.64;54.81;98800.38;5286924;28;20052;-79
2022/09/03 13:30:59;;;;;;;3.72;2.35;;;;;;;23.27;57.89;98783.47;5279855;28;20533;-79
2022/09/03 13:33:55;;;;;;;6.05;1.98;;;;;;;23.19;59.12;98808.16;5267049;28;20043;-79
2022/09/03 13:36:57;;;;;;;2.17;1.88;;;;;;;23.22;59.63;98804.97;5275796;28;20478;-79
2022/09/03 13:39:58;;;;;;;6.63;2.13;;;;;;;23.19;59.30;98803.56;5279888;28;20051;-79
2022/09/03 13:42:57;;;;;;;6.53;2.67;;;;;;;23.10;60.41;98794.13;5288019;28;20054;-78
2022/09/03 13:46:01;;;;;;;3.42;2.22;;;;;;;23.14;60.29;98772.84;5266477;28;20110;-78
2022/09/03 13:52:16;;;;;;;4.80;2.33;;;;;;;23.42;60.40;98762.22;5287161;28;20075;-79
2022/09/03 13:55:28;;;;;;;5.35;2.38;;;;;;;23.51;60.48;98769.97;5271147;28;20077;-78
2022/09/03 13:58:30;;;;;;;2.95;2.20;;;;;;;23.61;59.25;98762.13;5272769;28;20494;-78
2022/09/03 14:01:43;;;;;;;3.17;2.45;;;;;;;23.64;59.41;98789.56;5284380;28;20043;-78
2022/09/03 14:05:03;;;;;;;3.53;2.60;;;;;;;23.25;60.55;98785.59;5258002;28;20138;-78
2022/09/03 14:07:57;;;;;;;4.55;2.88;;;;;;;23.22;60.96;98780.63;5289329;28;20432;-78